createdAt,value
2019-03-28T00:00:56.953Z,103143.61
2019-03-28T00:03:30.698Z,103145.27
2019-03-28T00:06:04.783Z,103145.27
2019-03-28T00:08:38.549Z,103146.77
2019-03-28T00:11:12.457Z,103146.77
2019-03-28T00:13:46.183Z,103149.13
2019-03-28T00:16:19.981Z,103148.67
2019-03-28T00:18:57.350Z,103148.67
2019-03-28T00:21:29.168Z,103152.94
2019-03-28T00:24:02.908Z,103151.39
2019-03-28T00:26:36.650Z,103150.66
2019-03-28T00:29:10.384Z,103160.32
2019-03-28T00:31:47.909Z,103151.89
2019-03-28T00:34:21.273Z,103162.64
2019-03-28T00:36:55.161Z,103160.88
2019-03-28T00:39:30.303Z,103158.88
2019-03-28T00:42:04.018Z,103154.79
2019-03-28T00:44:37.832Z,103153.45
2019-03-28T00:47:14.318Z,103153.45
2019-03-28T00:49:48.056Z,103154.73
2019-03-28T00:52:21.811Z,103161.04
2019-03-28T00:54:58.105Z,103168.32
2019-03-28T00:57:31.860Z,103163.65
2019-03-28T01:00:09.904Z,103163.65
2019-03-28T01:02:43.641Z,103154.20
2019-03-28T01:05:17.466Z,103150.70
2019-03-28T01:07:51.226Z,103150.59
2019-03-28T01:10:24.999Z,103150.59
2019-03-28T01:13:01.714Z,103146.45
2019-03-28T01:15:35.480Z,103146.45
2019-03-28T01:18:09.213Z,103146.01
2019-03-28T01:20:43.119Z,103146.01
2019-03-28T01:23:16.926Z,103150.97
2019-03-28T01:25:50.714Z,103154.67
2019-03-28T01:28:24.529Z,103159.09
2019-03-28T01:31:01.097Z,103152.97
2019-03-28T01:33:34.828Z,103152.01
2019-03-28T01:36:08.581Z,103152.01
2019-03-28T01:38:42.315Z,103140.50
2019-03-28T01:41:16.285Z,103140.50
2019-03-28T01:43:50.089Z,103145.03
2019-03-28T01:46:23.815Z,103152.84
2019-03-28T01:48:58.348Z,103155.19
2019-03-28T01:51:32.191Z,103155.19
2019-03-28T01:54:05.913Z,103148.08
2019-03-28T01:56:39.651Z,103144.12
2019-03-28T01:59:13.427Z,103149.13
2019-03-28T02:01:47.191Z,103154.15
2019-03-28T02:04:20.931Z,103152.25
2019-03-28T02:06:54.844Z,103152.25
2019-03-28T02:09:28.615Z,103152.13
2019-03-28T02:12:02.373Z,103152.80
2019-03-28T02:14:36.105Z,103151.20
2019-03-28T02:17:09.870Z,103160.30
2019-03-28T02:19:43.625Z,103160.30
2019-03-28T02:22:17.375Z,103158.55
2019-03-28T02:24:51.125Z,103158.55
2019-03-28T02:27:25.958Z,103162.09
2019-03-28T02:29:59.828Z,103160.80
2019-03-28T02:32:34.207Z,103153.03
2019-03-28T02:35:08.122Z,103155.67
2019-03-28T02:37:41.890Z,103159.69
2019-03-28T02:40:16.766Z,103157.66
2019-03-28T02:42:50.566Z,103159.83
2019-03-28T02:45:24.342Z,103153.26
2019-03-28T02:48:01.641Z,103168.06
2019-03-28T02:50:35.878Z,103177.69
2019-03-28T02:53:09.609Z,103172.55
2019-03-28T02:55:43.369Z,103168.18
2019-03-28T02:58:17.094Z,103169.91
2019-03-28T03:00:51.071Z,103172.00
2019-03-28T03:03:25.119Z,103164.81
2019-03-28T03:05:58.886Z,103164.81
2019-03-28T03:08:33.605Z,103172.93
2019-03-28T03:11:07.533Z,103170.22
2019-03-28T03:13:41.266Z,103168.55
2019-03-28T03:16:14.999Z,103171.48
2019-03-28T03:18:48.756Z,103173.45
2019-03-28T03:21:22.464Z,103174.53
2019-03-28T03:23:56.252Z,103169.30
2019-03-28T03:26:29.984Z,103169.30
2019-03-28T03:29:03.747Z,103174.12
2019-03-28T03:31:37.476Z,103173.39
2019-03-28T03:34:12.154Z,103173.39
2019-03-28T03:36:45.954Z,103176.96
2019-03-28T03:39:19.728Z,103170.41
2019-03-28T03:41:53.815Z,103177.32
2019-03-28T03:44:27.606Z,103175.43
2019-03-28T03:47:01.386Z,103182.50
2019-03-28T03:49:35.142Z,103182.50
2019-03-28T03:52:08.871Z,103171.30
2019-03-28T03:54:42.608Z,103176.73
2019-03-28T03:57:16.329Z,103176.73
2019-03-28T03:59:50.115Z,103181.23
2019-03-28T04:02:23.881Z,103176.70
2019-03-28T04:04:57.617Z,103156.05
2019-03-28T04:07:31.423Z,103156.05
2019-03-28T04:10:05.839Z,103179.91
2019-03-28T04:12:39.627Z,103186.35
2019-03-28T04:15:13.360Z,103182.36
2019-03-28T04:17:47.713Z,103182.36
2019-03-28T04:20:21.630Z,103188.72
2019-03-28T04:22:55.370Z,103192.39
2019-03-28T04:25:29.167Z,103194.16
2019-03-28T04:28:02.929Z,103173.14
2019-03-28T04:30:36.734Z,103189.16
2019-03-28T04:33:10.463Z,103189.16
2019-03-28T04:35:44.234Z,103193.53
2019-03-28T04:38:17.963Z,103193.53
2019-03-28T04:40:51.708Z,103198.84
2019-03-28T04:43:25.632Z,103199.05
2019-03-28T04:45:59.607Z,103190.43
2019-03-28T04:48:33.373Z,103191.72
2019-03-28T04:51:07.114Z,103194.41
2019-03-28T04:53:40.862Z,103200.77
2019-03-28T04:56:14.634Z,103200.77
2019-03-28T04:58:49.353Z,103205.04
2019-03-28T05:01:23.274Z,103196.39
2019-03-28T05:03:57.144Z,103201.30
2019-03-28T05:06:31.046Z,103201.30
2019-03-28T05:09:05.470Z,103195.74
2019-03-28T05:11:39.218Z,103195.74
2019-03-28T05:14:13.008Z,103199.16
2019-03-28T05:16:46.753Z,103207.44
2019-03-28T05:19:20.538Z,103204.75
2019-03-28T05:21:54.280Z,103204.75
2019-03-28T05:24:28.042Z,103214.48
2019-03-28T05:27:01.802Z,103220.98
2019-03-28T05:29:35.554Z,103222.22
2019-03-28T05:32:09.308Z,103222.77
2019-03-28T05:34:44.688Z,103221.37
2019-03-28T05:37:18.460Z,103229.69
2019-03-28T05:39:52.184Z,103241.25
2019-03-28T05:42:25.926Z,103243.55
2019-03-28T05:44:59.662Z,103243.54
2019-03-28T05:47:33.416Z,103243.54
2019-03-28T05:50:07.146Z,103239.87
2019-03-28T05:52:40.893Z,103252.08
2019-03-28T05:55:14.992Z,103252.08
2019-03-28T05:57:48.732Z,103246.42
2019-03-28T06:00:22.489Z,103246.42
2019-03-28T06:02:56.229Z,103245.80
2019-03-28T06:05:29.963Z,103253.62
2019-03-28T06:08:03.713Z,103261.06
2019-03-28T06:10:37.439Z,103268.27
2019-03-28T06:13:11.194Z,103265.95
2019-03-28T06:15:44.992Z,103265.04
2019-03-28T06:18:18.725Z,103269.20
2019-03-28T06:20:52.459Z,103272.48
2019-03-28T06:23:26.189Z,103275.33
2019-03-28T06:25:59.936Z,103275.33
2019-03-28T06:28:33.670Z,103275.42
2019-03-28T06:31:07.526Z,103277.71
2019-03-28T06:33:41.246Z,103277.71
2019-03-28T06:36:14.982Z,103269.94
2019-03-28T06:38:48.726Z,103269.94
2019-03-28T06:41:23.254Z,103279.42
2019-03-28T06:43:57.474Z,103279.80
2019-03-28T06:46:31.340Z,103279.80
2019-03-28T06:49:05.088Z,103279.97
2019-03-28T06:51:38.823Z,103273.83
2019-03-28T06:54:12.815Z,103273.83
2019-03-28T06:56:46.632Z,103275.70
2019-03-28T06:59:20.559Z,103276.47
2019-03-28T07:01:54.322Z,103286.70
2019-03-28T07:04:28.078Z,103285.41
2019-03-28T07:07:01.814Z,103292.52
2019-03-28T07:09:35.650Z,103262.39
2019-03-28T07:12:09.376Z,103268.52
2019-03-28T07:14:43.128Z,103268.52
2019-03-28T07:17:16.872Z,103280.54
2019-03-28T07:19:50.666Z,103274.25
2019-03-28T07:22:24.508Z,103275.35
2019-03-28T07:24:58.310Z,103275.39
2019-03-28T07:27:32.068Z,103283.73
2019-03-28T07:30:10.428Z,103286.05
2019-03-28T07:32:44.183Z,103278.03
2019-03-28T07:35:17.912Z,103289.81
2019-03-28T07:37:51.680Z,103275.24
2019-03-28T07:40:25.699Z,103290.42
2019-03-28T07:42:59.666Z,103281.97
2019-03-28T07:45:34.596Z,103283.14
2019-03-28T07:48:08.509Z,103286.77
2019-03-28T07:50:42.709Z,103289.89
2019-03-28T07:53:19.677Z,103287.86
2019-03-28T07:55:52.179Z,103287.86
2019-03-28T07:58:25.936Z,103278.95
2019-03-28T08:00:59.673Z,103278.95
2019-03-28T08:03:33.934Z,103290.20
2019-03-28T08:06:12.603Z,103291.03
2019-03-28T08:08:45.336Z,103294.19
2019-03-28T08:11:19.104Z,103294.19
2019-03-28T08:13:52.885Z,103291.57
2019-03-28T08:16:28.874Z,103168.50
2019-03-28T08:19:02.106Z,103288.88
2019-03-28T08:21:35.839Z,103295.30
2019-03-28T08:24:09.589Z,103295.30
2019-03-28T08:26:43.320Z,103305.23
2019-03-28T08:29:17.186Z,103309.72
2019-03-28T08:31:50.917Z,103309.72
2019-03-28T08:34:24.649Z,103309.64
2019-03-28T08:36:58.431Z,103304.09
2019-03-28T08:39:32.166Z,103314.31
2019-03-28T08:42:05.890Z,103311.16
2019-03-28T08:44:39.640Z,103311.16
2019-03-28T08:47:13.418Z,103311.52
2019-03-28T08:49:47.185Z,103311.52
2019-03-28T08:52:20.957Z,103314.39
2019-03-28T08:54:54.676Z,103317.84
2019-03-28T08:57:28.434Z,103317.84
2019-03-28T09:00:02.742Z,103323.20
2019-03-28T09:02:36.511Z,103320.61
2019-03-28T09:05:10.249Z,103323.54
2019-03-28T09:07:44.010Z,103322.65
2019-03-28T09:10:17.753Z,103310.55
2019-03-28T09:12:51.504Z,103316.13
2019-03-28T09:15:25.315Z,103330.76
2019-03-28T09:18:00.379Z,103337.77
2019-03-28T09:20:34.255Z,103345.92
2019-03-28T09:23:08.103Z,103331.52
2019-03-28T09:25:41.852Z,103331.52
2019-03-28T09:28:16.144Z,103343.66
2019-03-28T09:30:51.442Z,103333.11
2019-03-28T09:33:25.763Z,103333.11
2019-03-28T09:35:59.559Z,103333.50
2019-03-28T09:38:33.382Z,103335.44
2019-03-28T09:41:07.279Z,103331.64
2019-03-28T09:43:54.177Z,103331.64
2019-03-28T09:46:16.569Z,103328.59
2019-03-28T09:48:50.358Z,103338.52
2019-03-28T09:51:24.137Z,103330.00
2019-03-28T09:53:57.884Z,103335.11
2019-03-28T09:56:31.697Z,103335.11
2019-03-28T09:59:05.782Z,103333.36
2019-03-28T10:01:39.505Z,103333.36
2019-03-28T10:04:13.254Z,103334.16
2019-03-28T10:06:47.026Z,103325.04
2019-03-28T10:09:20.815Z,103325.04
2019-03-28T10:11:54.625Z,103327.16
2019-03-28T10:14:28.457Z,103320.50
2019-03-28T10:17:02.378Z,103327.58
2019-03-28T10:19:36.119Z,103327.58
2019-03-28T10:22:09.865Z,103320.19
2019-03-28T10:24:44.549Z,103320.19
2019-03-28T10:27:19.363Z,103318.99
2019-03-28T10:29:53.371Z,103319.83
2019-03-28T10:32:27.136Z,103319.83
2019-03-28T10:35:01.157Z,103315.69
2019-03-28T10:37:34.928Z,103324.20
2019-03-28T10:40:08.675Z,103328.42
2019-03-28T10:42:42.452Z,103316.41
2019-03-28T10:45:16.203Z,103316.41
2019-03-28T10:47:49.972Z,103314.09
2019-03-28T10:50:23.745Z,103316.12
2019-03-28T10:52:57.484Z,103320.70
2019-03-28T10:55:31.248Z,103323.12
2019-03-28T10:58:17.773Z,103324.54
2019-03-28T11:00:40.597Z,103326.87
2019-03-28T11:03:14.439Z,103326.87
2019-03-28T11:05:48.219Z,103326.97
2019-03-28T11:08:22.103Z,103334.60
2019-03-28T11:10:56.537Z,103331.17
2019-03-28T11:13:30.353Z,103331.17
2019-03-28T11:16:04.078Z,103335.97
2019-03-28T11:18:37.803Z,103340.89
2019-03-28T11:21:12.651Z,103333.67
2019-03-28T11:23:46.397Z,103333.59
2019-03-28T11:26:20.133Z,103331.44
2019-03-28T11:28:53.852Z,103331.27
2019-03-28T11:31:27.719Z,103331.27
2019-03-28T11:34:01.506Z,103327.00
2019-03-28T11:36:35.302Z,103327.00
2019-03-28T11:39:09.034Z,103328.42
2019-03-28T11:41:42.758Z,103328.42
2019-03-28T11:44:16.510Z,103333.75
2019-03-28T11:46:50.242Z,103331.67
2019-03-28T11:49:23.966Z,103331.14
2019-03-28T11:51:57.696Z,103326.02
2019-03-28T11:54:31.405Z,103327.82
2019-03-28T11:57:05.177Z,103331.34
2019-03-28T11:59:39.269Z,103331.34
2019-03-28T12:02:19.824Z,103331.42
2019-03-28T12:04:48.783Z,103330.61
2019-03-28T12:07:22.640Z,103329.61
2019-03-28T12:09:56.377Z,103330.86
2019-03-28T12:12:30.104Z,103330.86
2019-03-28T12:15:05.379Z,103328.58
2019-03-28T12:17:39.155Z,103328.58
2019-03-28T12:20:12.956Z,103322.70
2019-03-28T12:22:46.706Z,103327.66
2019-03-28T12:25:20.447Z,103324.41
2019-03-28T12:27:54.172Z,103321.64
2019-03-28T12:30:27.953Z,103322.73
2019-03-28T12:33:01.692Z,103322.73
2019-03-28T12:35:35.452Z,103325.73
2019-03-28T12:38:09.177Z,103325.73
2019-03-28T12:40:42.923Z,103318.28
2019-03-28T12:43:16.665Z,103318.28
2019-03-28T12:45:50.395Z,103321.37
2019-03-28T12:48:24.139Z,103313.03
2019-03-28T12:50:59.146Z,103313.19
2019-03-28T12:53:33.083Z,103307.20
2019-03-28T12:56:06.825Z,103310.32
2019-03-28T12:58:40.573Z,103310.32
2019-03-28T13:01:14.291Z,103311.62
2019-03-28T13:03:48.037Z,103309.19
2019-03-28T13:06:21.780Z,103307.89
2019-03-28T13:08:55.470Z,103299.69
2019-03-28T13:11:29.221Z,103299.69
2019-03-28T13:14:02.977Z,103303.75
2019-03-28T13:16:36.722Z,103303.75
2019-03-28T13:19:10.446Z,103306.10
2019-03-28T13:21:44.193Z,103303.34
2019-03-28T13:24:17.930Z,103303.34
2019-03-28T13:26:51.640Z,103298.50
2019-03-28T13:29:25.363Z,103301.00
2019-03-28T13:31:59.095Z,103291.63
2019-03-28T13:34:32.877Z,103291.63
2019-03-28T13:37:06.619Z,103296.31
2019-03-28T13:39:40.335Z,103296.31
2019-03-28T13:42:14.052Z,103288.16
2019-03-28T13:44:48.645Z,103297.56
2019-03-28T13:47:22.428Z,103303.69
2019-03-28T13:49:56.151Z,103294.05
2019-03-28T13:52:29.883Z,103294.05
2019-03-28T13:55:05.158Z,103292.62
2019-03-28T13:57:38.932Z,103290.66
2019-03-28T14:00:13.939Z,103290.66
2019-03-28T14:02:56.976Z,103292.77
2019-03-28T14:05:23.090Z,103292.77
2019-03-28T14:07:56.829Z,103292.27
2019-03-28T14:10:30.555Z,103292.27
2019-03-28T14:13:04.820Z,103289.19
2019-03-28T14:15:38.552Z,103289.19
2019-03-28T14:18:12.289Z,103293.25
2019-03-28T14:20:46.149Z,103281.30
2019-03-28T14:23:19.878Z,103280.39
2019-03-28T14:25:53.633Z,103285.73
2019-03-28T14:28:27.362Z,103285.73
2019-03-28T14:31:01.151Z,103278.02
2019-03-28T14:33:35.048Z,103287.90
2019-03-28T14:36:08.754Z,103286.82
2019-03-28T14:38:42.456Z,103282.98
2019-03-28T14:41:16.184Z,103286.82
2019-03-28T14:43:49.910Z,103290.86
2019-03-28T14:46:23.649Z,103287.31
2019-03-28T14:48:57.370Z,103281.95
2019-03-28T14:51:31.095Z,103281.95
2019-03-28T14:54:04.816Z,103278.36
2019-03-28T14:56:38.526Z,103283.70
2019-03-28T14:59:12.416Z,103283.70
2019-03-28T15:01:46.135Z,103274.61
2019-03-28T15:04:19.831Z,103276.91
2019-03-28T15:06:53.572Z,103275.51
2019-03-28T15:09:27.270Z,103275.51
2019-03-28T15:12:01.002Z,103266.93
2019-03-28T15:14:34.707Z,103266.93
2019-03-28T15:17:08.436Z,103259.15
2019-03-28T15:19:42.145Z,103265.23
2019-03-28T15:22:15.864Z,103262.27
2019-03-28T15:24:49.584Z,103262.11
2019-03-28T15:27:23.304Z,103262.11
2019-03-28T15:29:57.027Z,103260.11
2019-03-28T15:32:30.742Z,103253.72
2019-03-28T15:35:05.238Z,103253.72
2019-03-28T15:37:38.943Z,103260.16
2019-03-28T15:40:12.699Z,103263.28
2019-03-28T15:42:46.427Z,103259.39
2019-03-28T15:45:20.121Z,103262.12
2019-03-28T15:47:53.837Z,103262.12
2019-03-28T15:50:27.540Z,103263.06
2019-03-28T15:53:01.261Z,103260.05
2019-03-28T15:55:34.960Z,103263.67
2019-03-28T15:58:22.094Z,103263.05
2019-03-28T16:00:44.090Z,103261.30
2019-03-28T16:03:17.798Z,103261.30
2019-03-28T16:05:57.945Z,103261.87
2019-03-28T16:08:27.786Z,103253.16
2019-03-28T16:11:01.848Z,103249.39
2019-03-28T16:13:37.523Z,103266.52
2019-03-28T16:16:11.323Z,103266.73
2019-03-28T16:18:45.357Z,103263.59
2019-03-28T16:21:19.598Z,103266.45
2019-03-28T16:23:53.469Z,103251.62
2019-03-28T16:26:27.189Z,103251.62
2019-03-28T16:29:00.890Z,103253.98
2019-03-28T16:31:34.623Z,103249.50
2019-03-28T16:34:08.349Z,103249.50
2019-03-28T16:36:42.064Z,103248.16
2019-03-28T16:39:15.766Z,103248.16
2019-03-28T16:41:49.810Z,103248.85
2019-03-28T16:44:23.723Z,103254.29
2019-03-28T16:46:57.480Z,103254.14
2019-03-28T16:49:31.204Z,103252.09
2019-03-28T16:52:04.896Z,103252.41
2019-03-28T16:54:38.638Z,103252.41
2019-03-28T16:57:12.920Z,103255.88
2019-03-28T16:59:46.638Z,103244.03
2019-03-28T17:02:20.348Z,103244.03
2019-03-28T17:04:54.857Z,103254.98
2019-03-28T17:07:28.566Z,103254.98
2019-03-28T17:10:02.291Z,103244.61
2019-03-28T17:12:36.013Z,103247.46
2019-03-28T17:15:09.722Z,103245.92
2019-03-28T17:17:43.432Z,103243.48
2019-03-28T17:20:17.150Z,103258.75
2019-03-28T17:22:50.838Z,103258.75
2019-03-28T17:25:24.558Z,103249.64
2019-03-28T17:27:58.219Z,103249.64
2019-03-28T17:30:31.947Z,103250.61
2019-03-28T17:33:05.943Z,103250.61
2019-03-28T17:35:39.948Z,103249.59
2019-03-28T17:38:13.680Z,103251.70
2019-03-28T17:40:47.387Z,103252.35
2019-03-28T17:43:21.087Z,103254.67
2019-03-28T17:45:54.877Z,103254.67
2019-03-28T17:48:28.917Z,103254.27
2019-03-28T17:51:03.873Z,103254.13
2019-03-28T17:53:37.577Z,103254.22
2019-03-28T17:56:12.132Z,103256.98
2019-03-28T17:58:45.867Z,103257.83
2019-03-28T18:01:19.577Z,103257.83
2019-03-28T18:03:53.288Z,103256.41
2019-03-28T18:06:27.007Z,103259.77
2019-03-28T18:09:00.707Z,103259.77
2019-03-28T18:11:34.477Z,103254.47
2019-03-28T18:14:08.249Z,103259.32
2019-03-28T18:16:41.995Z,103264.45
2019-03-28T18:19:15.794Z,103261.87
2019-03-28T18:22:02.420Z,103261.87
2019-03-28T18:24:24.965Z,103266.38
2019-03-28T18:26:58.685Z,103267.06
2019-03-28T18:29:32.400Z,103262.69
2019-03-28T18:32:06.505Z,103262.69
2019-03-28T18:34:40.267Z,103270.72
2019-03-28T18:37:13.967Z,103264.55
2019-03-28T18:39:47.775Z,103264.55
2019-03-28T18:42:21.520Z,103272.14
2019-03-28T18:44:55.244Z,103272.14
2019-03-28T18:47:28.957Z,103272.98
2019-03-28T18:50:04.030Z,103272.98
2019-03-28T18:52:37.948Z,103272.53
2019-03-28T18:55:12.336Z,103272.53
2019-03-28T18:57:46.224Z,103271.74
2019-03-28T19:00:20.976Z,103271.74
2019-03-28T19:02:54.706Z,103273.17
2019-03-28T19:05:28.436Z,103276.33
2019-03-28T19:08:02.161Z,103276.33
2019-03-28T19:10:35.897Z,103281.95
2019-03-28T19:13:09.638Z,103275.59
2019-03-28T19:15:43.334Z,103275.58
2019-03-28T19:18:17.050Z,103277.94
2019-03-28T19:20:50.776Z,103277.94
2019-03-28T19:23:24.977Z,103276.02
2019-03-28T19:25:58.902Z,103284.97
2019-03-28T19:28:32.628Z,103280.09
2019-03-28T19:31:06.352Z,103279.02
2019-03-28T19:33:40.906Z,103279.02
2019-03-28T19:36:14.714Z,103284.32
2019-03-28T19:38:48.453Z,103284.32
2019-03-28T19:41:22.199Z,103285.08
2019-03-28T19:43:55.932Z,103279.70
2019-03-28T19:46:29.662Z,103272.92
2019-03-28T19:49:03.368Z,103273.77
2019-03-28T19:51:37.112Z,103271.20
2019-03-28T19:54:10.808Z,103271.20
2019-03-28T19:56:44.576Z,103274.55
2019-03-28T19:59:18.358Z,103277.13
2019-03-28T20:01:52.187Z,103279.30
2019-03-28T20:04:25.899Z,103277.83
2019-03-28T20:06:59.637Z,103269.48
2019-03-28T20:09:33.379Z,103269.48
2019-03-28T20:12:07.114Z,103268.10
2019-03-28T20:14:41.218Z,103260.71
2019-03-28T20:17:15.613Z,103260.71
2019-03-28T20:19:49.409Z,103269.63
2019-03-28T20:22:23.152Z,103270.19
2019-03-28T20:24:58.245Z,103268.75
2019-03-28T20:27:32.195Z,103268.75
2019-03-28T20:30:06.388Z,103271.44
2019-03-28T20:32:40.119Z,103270.19
2019-03-28T20:35:13.901Z,103278.47
2019-03-28T20:37:47.619Z,103279.28
2019-03-28T20:40:21.363Z,103276.16
2019-03-28T20:42:55.073Z,103280.05
2019-03-28T20:45:28.869Z,103278.05
2019-03-28T20:48:02.602Z,103280.95
2019-03-28T20:50:36.340Z,103283.23
2019-03-28T20:53:10.134Z,103283.23
2019-03-28T20:55:43.863Z,103290.20
2019-03-28T20:58:17.693Z,103294.39
2019-03-28T21:00:51.405Z,103298.41
2019-03-28T21:03:25.214Z,103298.41
2019-03-28T21:05:58.969Z,103294.35
2019-03-28T21:08:32.745Z,103294.35
2019-03-28T21:11:06.465Z,103299.19
2019-03-28T21:13:40.198Z,103302.89
2019-03-28T21:16:13.932Z,103307.31
2019-03-28T21:18:47.835Z,103309.55
2019-03-28T21:21:21.594Z,103310.08
2019-03-28T21:23:55.331Z,103304.80
2019-03-28T21:26:29.076Z,103304.80
2019-03-28T21:29:02.844Z,103305.06
2019-03-28T21:31:49.232Z,103311.48
2019-03-28T21:34:12.136Z,103315.16
2019-03-28T21:36:45.869Z,103309.21
2019-03-28T21:39:19.582Z,103309.21
2019-03-28T21:41:53.339Z,103320.06
2019-03-28T21:44:27.071Z,103315.72
2019-03-28T21:47:00.830Z,103316.75
2019-03-28T21:49:34.981Z,103312.30
2019-03-28T21:52:08.955Z,103311.42
2019-03-28T21:54:42.692Z,103306.59
2019-03-28T21:57:16.431Z,103308.77
2019-03-28T21:59:50.152Z,103317.13
2019-03-28T22:02:24.210Z,103317.13
2019-03-28T22:04:58.733Z,103317.19
2019-03-28T22:07:32.612Z,103317.80
2019-03-28T22:10:08.788Z,103307.31
2019-03-28T22:12:42.192Z,103307.31
2019-03-28T22:15:15.902Z,103300.91
2019-03-28T22:17:49.695Z,103306.47
2019-03-28T22:20:23.411Z,103299.20
2019-03-28T22:22:57.127Z,103305.86
2019-03-28T22:25:30.905Z,103304.23
2019-03-28T22:28:04.731Z,103304.23
2019-03-28T22:30:39.004Z,103300.37
2019-03-28T22:33:13.039Z,103294.62
2019-03-28T22:35:46.827Z,103293.27
2019-03-28T22:38:22.239Z,103293.27
2019-03-28T22:40:56.945Z,103296.31
2019-03-28T22:43:33.273Z,103296.31
2019-03-28T22:46:07.058Z,103291.60
2019-03-28T22:48:40.830Z,103295.95
2019-03-28T22:51:15.696Z,103295.95
2019-03-28T22:53:49.535Z,103294.29
2019-03-28T22:56:23.625Z,103292.19
2019-03-28T22:58:59.215Z,103292.19
2019-03-28T23:01:33.044Z,103288.65
2019-03-28T23:04:06.804Z,103285.56
2019-03-28T23:06:40.555Z,103285.56
2019-03-28T23:09:14.247Z,103287.06
2019-03-28T23:11:48.011Z,103285.69
2019-03-28T23:14:23.510Z,103282.68
2019-03-28T23:16:57.216Z,103283.27
2019-03-28T23:19:31.982Z,103279.47
2019-03-28T23:22:07.942Z,103275.61
2019-03-28T23:24:49.000Z,103270.13
2019-03-28T23:27:17.600Z,103270.13
2019-03-28T23:29:51.306Z,103268.61
2019-03-28T23:32:25.025Z,103270.50
2019-03-28T23:34:58.865Z,103265.92
2019-03-28T23:37:36.464Z,103265.92
2019-03-28T23:40:10.252Z,103255.25
2019-03-28T23:42:44.178Z,103258.70
2019-03-28T23:45:17.940Z,103257.19
2019-03-28T23:47:54.401Z,103253.25
2019-03-28T23:50:27.318Z,103253.25
2019-03-28T23:53:03.784Z,103252.77
2019-03-28T23:55:37.480Z,103242.06
2019-03-28T23:58:11.192Z,103242.06
